Terminal Aerodrome Forecast
Issued by NWS

Home | Current Version | Previous Version | Text Only | Print | Product List | Glossary On
Versions: 1 2 3 4 5 6 7 8 9 10 11 12 13 14 15 16 17 18 19 20 21 22 23 24
000
FTUS43 KDLH 230200 AAA
TAFHYR
TAF AMD
KHYR 230238Z 2303/2324 18004KT 4SM BR OVC004
      TEMPO 2303/2306 3/4SM BR OVC002
     FM230600 17007KT 3/4SM -DZ BR OVC002
     FM231400 20005KT 3SM -DZ BR OVC006
     FM232200 23005KT 5SM BR BKN017=

USA.gov is the U.S. government's official web portal to all federal, state and local government web resources and services.